Time;durP1;ratioP1;P1;durP2;ratioP2;P2;SDS_P1;SDS_P2;PMS_P1;PMS_P2;Temp;Humidity;BMP_temperature;BMP_pressure;BME280_temperature;BME280_humidity;BME280_pressure;Samples;Min_cycle;Max_cycle;Signal;HPM_P1;HPM_P2
2023/09/08 00:00:26;;;;;;;8.40;6.10;;;;;;;14.06;87.34;101369.12;105196;1257;74574;-62
2023/09/08 00:03:13;;;;;;;9.10;6.60;;;;;;;14.02;87.52;101369.61;105197;1258;82845;-62
2023/09/08 00:05:41;;;;;;;7.20;5.80;;;;;;;14.01;87.68;101367.88;105172;1258;73756;-62
2023/09/08 00:08:08;;;;;;;7.20;6.40;;;;;;;13.99;87.64;101368.68;105204;1257;69227;-62
2023/09/08 00:10:35;;;;;;;9.70;6.60;;;;;;;13.97;87.71;101367.68;105176;1260;69199;-62
2023/09/08 00:13:02;;;;;;;6.80;6.10;;;;;;;13.95;87.79;101368.27;105201;1257;74528;-62
2023/09/08 00:15:29;;;;;;;9.30;6.80;;;;;;;13.94;87.68;101369.20;105191;1260;83139;-62
2023/09/08 00:17:56;;;;;;;10.00;6.60;;;;;;;13.89;87.64;101368.66;105197;1260;74004;-62
2023/09/08 00:20:24;;;;;;;12.50;7.60;;;;;;;13.86;87.87;101371.42;105239;1261;69183;-62
2023/09/08 00:22:51;;;;;;;9.70;6.30;;;;;;;13.83;87.81;101368.52;105221;1260;69176;-62
2023/09/08 00:25:18;;;;;;;9.50;7.10;;;;;;;13.80;87.71;101369.33;105174;1258;74451;-62
2023/09/08 00:27:45;;;;;;;8.40;6.70;;;;;;;13.77;87.80;101364.52;105249;1260;83626;-62
2023/09/08 00:30:12;;;;;;;9.80;7.10;;;;;;;13.72;87.72;101363.46;105099;1257;73797;-62
2023/09/08 00:32:39;;;;;;;8.50;6.60;;;;;;;13.67;87.70;101362.59;105225;1256;69189;-62
2023/09/08 00:35:08;;;;;;;8.00;6.70;;;;;;;13.65;87.75;101362.83;105106;1260;69323;-62
2023/09/08 00:37:35;;;;;;;9.80;6.90;;;;;;;13.64;87.81;101363.94;105178;1258;74737;-62
2023/09/08 00:40:02;;;;;;;9.00;7.20;;;;;;;13.61;87.92;101368.23;105154;1256;83382;-62
2023/09/08 00:42:29;;;;;;;8.80;7.10;;;;;;;13.57;87.89;101363.43;105277;1259;72784;-62
2023/09/08 00:44:56;;;;;;;7.70;6.40;;;;;;;13.55;87.92;101362.13;105225;1257;69091;-62
2023/09/08 00:47:23;;;;;;;10.00;7.40;;;;;;;13.53;88.09;101360.28;105278;1259;69173;-62
2023/09/08 00:49:51;;;;;;;9.30;7.00;;;;;;;13.50;88.10;101359.48;105427;1257;75560;-62
2023/09/08 00:52:18;;;;;;;8.30;6.40;;;;;;;13.47;88.16;101360.63;105117;1260;83271;-62
2023/09/08 00:54:45;;;;;;;9.80;6.60;;;;;;;13.46;88.36;101356.27;105344;1257;72577;-62
2023/09/08 00:57:12;;;;;;;8.80;6.50;;;;;;;13.47;88.39;101357.84;105280;1260;69156;-62
2023/09/08 00:59:39;;;;;;;10.00;6.70;;;;;;;13.46;88.31;101358.58;105344;1258;69166;-62
2023/09/08 01:02:06;;;;;;;7.90;7.10;;;;;;;13.43;88.49;101354.98;105319;1257;73609;-62
2023/09/08 01:04:33;;;;;;;8.00;7.10;;;;;;;13.44;88.73;101355.48;105315;1259;83480;-62
2023/09/08 01:07:01;;;;;;;8.00;7.20;;;;;;;13.42;88.62;101353.08;105313;1256;72771;-62
2023/09/08 01:09:29;;;;;;;9.40;7.30;;;;;;;13.41;88.69;101353.64;105090;1256;69205;-62
2023/09/08 01:12:00;;;;;;;10.50;6.80;;;;;;;13.39;88.61;101351.77;105363;1259;69209;-62
2023/09/08 01:14:27;;;;;;;10.00;6.90;;;;;;;13.36;88.53;101351.89;105266;1257;74612;-62
2023/09/08 01:16:54;;;;;;;8.30;7.20;;;;;;;13.31;88.66;101352.38;105295;1259;82380;-62
2023/09/08 01:19:21;;;;;;;10.70;7.80;;;;;;;13.28;88.61;101352.67;105226;1257;72613;-62
2023/09/08 01:22:11;;;;;;;11.30;8.10;;;;;;;13.28;88.92;101352.84;105341;1256;69195;-62
2023/09/08 01:24:43;;;;;;;8.60;7.60;;;;;;;13.27;89.06;101348.65;105327;1259;69071;-62
2023/09/08 01:27:12;;;;;;;10.80;8.00;;;;;;;13.25;88.88;101349.06;105276;1257;75599;-62
2023/09/08 01:29:41;;;;;;;7.70;6.70;;;;;;;13.24;88.95;101348.55;105170;1257;83259;-62
2023/09/08 01:32:08;;;;;;;9.90;7.40;;;;;;;13.23;88.99;101347.20;105327;1256;72597;-62
2023/09/08 01:34:39;;;;;;;9.50;7.00;;;;;;;13.21;89.11;101346.20;105140;1258;69143;-62
2023/09/08 01:37:06;;;;;;;7.80;6.50;;;;;;;13.17;89.07;101344.55;105104;1262;69212;-62
2023/09/08 01:39:33;;;;;;;9.70;6.70;;;;;;;13.15;89.01;101341.11;105362;1257;75535;-62
2023/09/08 01:42:00;;;;;;;8.40;6.90;;;;;;;13.12;89.02;101341.91;105375;1257;83879;-62
2023/09/08 01:44:27;;;;;;;12.00;7.20;;;;;;;13.10;88.99;101341.98;105295;1257;72662;-62
2023/09/08 01:46:56;;;;;;;8.90;7.40;;;;;;;13.07;89.14;101348.73;105189;1260;69299;-62
2023/09/08 01:49:24;;;;;;;10.20;7.00;;;;;;;13.05;89.27;101347.59;105099;1257;69093;-62
2023/09/08 01:51:52;;;;;;;8.40;7.30;;;;;;;13.03;89.43;101348.02;105345;1255;75702;-62
2023/09/08 01:54:19;;;;;;;9.00;7.30;;;;;;;13.04;89.78;101346.58;105365;1259;83457;-62
2023/09/08 01:56:45;;;;;;;9.30;7.40;;;;;;;13.02;89.44;101345.05;105291;1257;72803;-62
2023/09/08 01:59:12;;;;;;;10.00;7.60;;;;;;;12.99;89.33;101344.26;105127;1257;69114;-62
2023/09/08 02:01:40;;;;;;;11.00;6.80;;;;;;;12.98;89.59;101343.42;105309;1259;69554;-62
2023/09/08 02:04:07;;;;;;;9.60;7.50;;;;;;;12.97;89.46;101342.42;105364;1257;74482;-62
2023/09/08 02:06:35;;;;;;;8.80;7.10;;;;;;;12.94;89.61;101343.02;105281;1259;81336;-62
2023/09/08 02:09:02;;;;;;;8.70;7.80;;;;;;;12.93;89.51;101339.73;105272;1256;73687;-62
2023/09/08 02:11:29;;;;;;;7.40;6.20;;;;;;;12.90;89.58;101338.77;105268;1258;69189;-62
2023/09/08 02:13:56;;;;;;;8.30;6.90;;;;;;;12.88;89.66;101341.98;105258;1257;69169;-62
2023/09/08 02:16:25;;;;;;;9.30;7.80;;;;;;;12.86;89.60;101339.61;105317;1257;74691;-62
2023/09/08 02:18:52;;;;;;;9.70;7.30;;;;;;;12.86;89.76;101337.34;105259;1259;84029;-62
2023/09/08 02:21:19;;;;;;;10.30;7.70;;;;;;;12.85;89.79;101341.05;105235;1257;73786;-62
2023/09/08 02:23:46;;;;;;;11.10;7.20;;;;;;;12.83;89.70;101338.13;105350;1257;69195;-62
2023/09/08 02:26:13;;;;;;;9.10;6.80;;;;;;;12.81;89.73;101333.28;105272;1259;69189;-62
2023/09/08 02:28:39;;;;;;;11.20;6.60;;;;;;;12.80;89.74;101334.54;105287;1256;74591;-62
2023/09/08 02:31:07;;;;;;;7.20;6.30;;;;;;;12.79;89.83;101332.11;105302;1259;83206;-62
2023/09/08 02:33:33;;;;;;;8.10;7.00;;;;;;;12.77;89.79;101328.14;105257;1256;72606;-62
2023/09/08 02:36:03;;;;;;;8.30;7.00;;;;;;;12.76;89.92;101325.36;105162;1258;69143;-62
2023/09/08 02:38:31;;;;;;;8.20;6.10;;;;;;;12.73;89.93;101323.16;105294;1256;69183;-62
2023/09/08 02:40:59;;;;;;;6.20;5.60;;;;;;;12.69;89.86;101321.71;105339;1259;75379;-62
2023/09/08 02:43:27;;;;;;;7.50;5.80;;;;;;;12.66;90.08;101319.52;105129;1260;83283;-62
2023/09/08 02:45:54;;;;;;;7.80;6.10;;;;;;;12.64;89.86;101324.50;105318;1257;73734;-62
2023/09/08 02:48:22;;;;;;;7.40;5.70;;;;;;;12.62;89.90;101322.13;105333;1257;69093;-62
2023/09/08 02:50:49;;;;;;;8.10;6.00;;;;;;;12.59;89.75;101316.06;105266;1259;69672;-62
2023/09/08 02:53:17;;;;;;;7.70;6.00;;;;;;;12.57;89.98;101314.91;105096;1257;74450;-62
2023/09/08 02:55:45;;;;;;;9.20;6.10;;;;;;;12.55;89.98;101314.60;105155;1260;83822;-62
2023/09/08 02:58:12;;;;;;;7.70;5.60;;;;;;;12.53;89.94;101310.45;105308;1256;72634;-62
2023/09/08 03:00:39;;;;;;;7.10;6.10;;;;;;;12.50;89.98;101308.79;105190;1256;69192;-62
2023/09/08 03:03:06;;;;;;;7.50;5.30;;;;;;;12.47;90.03;101305.20;105303;1259;69217;-62
2023/09/08 03:05:34;;;;;;;6.10;5.50;;;;;;;12.46;90.35;101306.98;105372;1257;75677;-62
2023/09/08 03:08:01;;;;;;;7.20;5.50;;;;;;;12.44;90.33;101301.45;105312;1259;83181;-62
2023/09/08 03:10:28;;;;;;;8.10;5.80;;;;;;;12.39;89.93;101303.34;105253;1257;74048;-62
2023/09/08 03:12:55;;;;;;;7.80;5.60;;;;;;;12.37;89.99;101305.70;105119;1256;69176;-62
2023/09/08 03:15:22;;;;;;;7.20;6.00;;;;;;;12.34;90.06;101304.20;105183;1260;69198;-62
2023/09/08 03:17:49;;;;;;;8.70;6.40;;;;;;;12.32;89.98;101302.87;105318;1256;75804;-62
2023/09/08 03:20:16;;;;;;;9.10;5.80;;;;;;;12.32;90.15;101305.70;105240;1257;83441;-62
2023/09/08 03:22:43;;;;;;;7.10;5.50;;;;;;;12.29;90.18;101303.13;105081;1261;73624;-62
2023/09/08 03:25:10;;;;;;;7.80;5.90;;;;;;;12.27;90.33;101303.53;105301;1256;69158;-62
2023/09/08 03:27:37;;;;;;;8.40;6.20;;;;;;;12.26;90.30;101301.27;105254;1259;69181;-62
2023/09/08 03:30:05;;;;;;;9.10;6.60;;;;;;;12.26;90.39;101304.07;105278;1256;75810;-62
2023/09/08 03:32:32;;;;;;;7.40;6.10;;;;;;;12.26;90.54;101307.59;105332;1256;83343;-62
2023/09/08 03:35:00;;;;;;;7.90;6.70;;;;;;;12.25;90.59;101307.27;105280;1255;72640;-62
2023/09/08 03:37:27;;;;;;;8.10;6.40;;;;;;;12.25;90.53;101304.63;105347;1259;69189;-62
2023/09/08 03:39:54;;;;;;;7.50;6.60;;;;;;;12.25;90.73;101301.31;105273;1259;69205;-62
2023/09/08 03:42:21;;;;;;;9.90;6.50;;;;;;;12.24;90.83;101300.28;105310;1259;75835;-62
2023/09/08 03:44:48;;;;;;;9.00;6.00;;;;;;;12.22;90.75;101300.16;105277;1257;82905;-62
2023/09/08 03:47:15;;;;;;;9.20;6.00;;;;;;;12.22;90.68;101301.05;105109;1256;73724;-62
2023/09/08 03:49:42;;;;;;;7.70;6.40;;;;;;;12.19;90.73;101302.89;105370;1257;69056;-62
2023/09/08 03:52:09;;;;;;;6.70;6.00;;;;;;;12.18;90.55;101305.02;105272;1256;69147;-62
2023/09/08 03:54:37;;;;;;;6.80;6.10;;;;;;;12.16;90.77;101301.92;105336;1257;74499;-62
2023/09/08 03:57:04;;;;;;;10.40;6.10;;;;;;;12.18;91.08;101305.74;105297;1259;83026;-62
2023/09/08 03:59:31;;;;;;;8.00;6.00;;;;;;;12.17;90.90;101305.40;105297;1259;73850;-62
2023/09/08 04:01:58;;;;;;;8.60;6.30;;;;;;;12.16;90.91;101309.45;105268;1256;69071;-62
2023/09/08 04:04:25;;;;;;;8.10;6.40;;;;;;;12.15;90.87;101305.83;105342;1256;69157;-62
2023/09/08 04:06:52;;;;;;;10.70;6.20;;;;;;;12.13;90.79;101306.38;105298;1256;74540;-62
2023/09/08 04:09:19;;;;;;;7.20;6.40;;;;;;;12.11;90.95;101308.02;105297;1257;83652;-62
2023/09/08 04:11:46;;;;;;;8.60;6.60;;;;;;;12.11;91.18;101305.92;105302;1255;72556;-62
2023/09/08 04:14:13;;;;;;;8.60;6.50;;;;;;;12.13;91.23;101305.87;105242;1259;69132;-62
2023/09/08 04:16:40;;;;;;;7.10;6.30;;;;;;;12.10;90.93;101304.56;105282;1259;69211;-62
2023/09/08 04:19:07;;;;;;;8.50;6.50;;;;;;;12.11;91.76;101303.83;105282;1259;74558;-62
2023/09/08 04:21:35;;;;;;;9.70;7.10;;;;;;;12.11;91.09;101299.09;105197;1260;83374;-62
2023/09/08 04:24:02;;;;;;;8.50;6.30;;;;;;;12.09;91.29;101302.50;105334;1256;73704;-62
2023/09/08 04:26:29;;;;;;;8.20;6.60;;;;;;;12.08;91.40;101301.29;105227;1259;69118;-62
2023/09/08 04:28:56;;;;;;;10.10;6.80;;;;;;;12.03;91.01;101304.76;105173;1260;69174;-62
2023/09/08 04:31:23;;;;;;;8.30;6.50;;;;;;;12.02;91.17;101305.30;105277;1257;75614;-62
2023/09/08 04:33:50;;;;;;;7.70;6.40;;;;;;;12.00;91.18;101303.79;105288;1259;83288;-62
2023/09/08 04:36:17;;;;;;;7.90;6.90;;;;;;;11.99;91.37;101303.98;105249;1258;73760;-62
2023/09/08 04:38:44;;;;;;;9.90;6.40;;;;;;;11.97;91.15;101307.55;105114;1256;69158;-62
2023/09/08 04:41:11;;;;;;;8.40;6.80;;;;;;;11.98;91.51;101307.52;105281;1259;69346;-62
2023/09/08 04:43:39;;;;;;;7.90;6.70;;;;;;;11.99;91.52;101307.14;105300;1256;76151;-62
2023/09/08 04:46:06;;;;;;;9.00;6.90;;;;;;;11.98;91.48;101309.63;105124;1257;83249;-62
2023/09/08 04:48:33;;;;;;;8.30;7.10;;;;;;;11.99;91.66;101304.16;105248;1257;73694;-62
2023/09/08 04:51:00;;;;;;;8.60;7.40;;;;;;;12.00;91.70;101305.38;105330;1258;69202;-62
2023/09/08 04:53:28;;;;;;;9.00;7.40;;;;;;;12.00;91.91;101301.52;105382;1256;69235;-62
2023/09/08 04:55:55;;;;;;;8.90;7.70;;;;;;;12.03;92.25;101299.48;105132;1257;74587;-62
2023/09/08 04:58:23;;;;;;;8.30;7.40;;;;;;;12.05;92.24;101299.27;105360;1259;82736;-62
2023/09/08 05:00:51;;;;;;;10.40;8.00;;;;;;;12.06;92.30;101299.42;105272;1259;73839;-62
2023/09/08 05:03:18;;;;;;;9.20;7.90;;;;;;;12.12;92.70;101298.38;105286;1257;69135;-62
2023/09/08 05:05:45;;;;;;;9.30;8.20;;;;;;;12.14;92.61;101301.30;105384;1259;69186;-64
2023/09/08 05:08:13;;;;;;;8.30;7.40;;;;;;;12.16;92.54;101298.94;105372;1257;74640;-63
2023/09/08 05:10:40;;;;;;;9.00;7.80;;;;;;;12.21;92.79;101297.40;105295;1257;82924;-63
2023/09/08 05:13:07;;;;;;;11.20;7.70;;;;;;;12.25;92.87;101298.50;105132;1256;73881;-63
2023/09/08 05:15:48;;;;;;;10.30;8.40;;;;;;;12.33;93.45;101298.11;105279;1256;69194;-63
2023/09/08 05:18:15;;;;;;;8.40;7.50;;;;;;;12.40;93.58;101300.15;105344;1259;69275;-63
2023/09/08 05:20:43;;;;;;;9.10;7.70;;;;;;;12.46;93.50;101296.84;105335;1257;74623;-63
2023/09/08 05:23:10;;;;;;;9.60;8.20;;;;;;;12.52;93.64;101300.65;105357;1256;83384;-63
2023/09/08 05:25:38;;;;;;;8.90;7.90;;;;;;;12.60;94.07;101300.26;105251;1255;72605;-63
2023/09/08 05:28:05;;;;;;;8.70;7.80;;;;;;;12.69;94.37;101303.64;105411;1259;69288;-63
2023/09/08 05:30:32;;;;;;;9.30;7.70;;;;;;;12.77;94.34;101303.59;105254;1259;69114;-63
2023/09/08 05:32:59;;;;;;;9.00;7.60;;;;;;;12.85;94.46;101304.73;105404;1259;75542;-63
2023/09/08 05:35:26;;;;;;;11.50;9.10;;;;;;;12.93;95.12;101314.46;105398;1259;83509;-63
2023/09/08 05:37:53;;;;;;;10.00;8.80;;;;;;;13.05;95.70;101313.02;105132;1255;73673;-63
2023/09/08 05:40:23;;;;;;;11.60;8.70;;;;;;;13.16;96.03;101314.23;105252;1257;69083;-63
2023/09/08 05:42:51;;;;;;;;;;;;;;;13.25;96.14;101313.60;105373;1259;69138;-63
2023/09/08 05:45:18;;;;;;;8.90;7.70;;;;;;;13.34;96.39;101313.14;105336;1257;74651;-63
2023/09/08 05:47:45;;;;;;;10.30;8.90;;;;;;;13.42;96.45;101311.45;105366;1257;82444;-63
2023/09/08 05:50:12;;;;;;;10.20;9.10;;;;;;;13.52;96.86;101306.58;105337;1257;73767;-63
2023/09/08 05:52:39;;;;;;;9.80;8.80;;;;;;;13.63;96.99;101304.96;105298;1256;69071;-63
2023/09/08 05:55:07;;;;;;;9.50;8.50;;;;;;;13.73;97.06;101306.88;105330;1259;69250;-63
2023/09/08 05:57:34;;;;;;;10.70;9.60;;;;;;;13.83;97.23;101310.56;105303;1257;75545;-63
2023/09/08 06:00:04;;;;;;;12.70;10.90;;;;;;;13.93;97.32;101303.52;105314;1259;83617;-63
2023/09/08 06:02:39;;;;;;;14.10;10.40;;;;;;;14.04;97.46;101307.67;105315;1257;73765;-63
2023/09/08 06:05:08;;;;;;;14.10;12.60;;;;;;;14.15;97.53;101310.08;105291;1259;69280;-63
2023/09/08 06:07:35;;;;;;;14.40;11.90;;;;;;;14.25;97.60;101306.36;105169;1258;69145;-63
2023/09/08 06:10:06;;;;;;;13.50;12.00;;;;;;;14.36;97.73;101303.87;105317;1259;74737;-63
2023/09/08 06:12:33;;;;;;;13.00;11.60;;;;;;;14.46;98.00;101308.90;105375;1257;81385;-61
2023/09/08 06:15:05;;;;;;;13.70;12.10;;;;;;;14.57;98.20;101311.16;105336;1256;72501;-61
2023/09/08 06:17:32;;;;;;;13.70;12.20;;;;;;;14.68;98.30;101305.43;105352;1259;69812;-61
2023/09/08 06:20:00;;;;;;;13.80;12.40;;;;;;;14.79;98.39;101306.42;105287;1256;69126;-62
2023/09/08 06:22:27;;;;;;;14.60;12.10;;;;;;;14.89;98.34;101301.77;105277;1257;75732;-62
2023/09/08 06:24:54;;;;;;;14.10;12.60;;;;;;;14.99;98.13;101303.49;105266;1257;82638;-62
2023/09/08 06:27:21;;;;;;;13.70;12.20;;;;;;;15.07;98.05;101307.20;105310;1256;73621;-62
2023/09/08 06:29:48;;;;;;;18.20;13.10;;;;;;;15.15;98.08;101307.91;105120;1260;69271;-62
2023/09/08 06:32:15;;;;;;;14.70;13.30;;;;;;;15.24;98.21;101307.39;105328;1256;69203;-62
2023/09/08 06:34:43;;;;;;;21.50;13.50;;;;;;;15.32;98.08;101305.64;105371;1256;74503;-62
2023/09/08 06:37:10;;;;;;;14.30;12.70;;;;;;;15.42;97.94;101305.40;105279;1259;83299;-62
2023/09/08 06:39:37;;;;;;;14.80;13.30;;;;;;;15.51;97.91;101309.58;105289;1255;72692;-62
2023/09/08 06:42:05;;;;;;;15.80;13.30;;;;;;;15.59;98.02;101305.17;105333;1257;69202;-62
2023/09/08 06:44:31;;;;;;;14.70;12.80;;;;;;;15.69;98.06;101302.33;105115;1260;69168;-62
2023/09/08 06:46:58;;;;;;;15.10;13.10;;;;;;;15.78;97.98;101306.51;105316;1256;75522;-62
2023/09/08 06:49:26;;;;;;;13.90;12.20;;;;;;;15.88;98.06;101303.60;105303;1259;83541;-62
2023/09/08 06:51:53;;;;;;;14.60;12.20;;;;;;;15.99;98.17;101305.21;105294;1257;73447;-62
2023/09/08 06:54:20;;;;;;;18.00;13.00;;;;;;;16.10;98.19;101307.70;105252;1256;69231;-62
2023/09/08 06:56:47;;;;;;;14.00;11.80;;;;;;;16.22;98.22;101301.52;105382;1259;69121;-62
2023/09/08 06:59:15;;;;;;;14.20;11.90;;;;;;;16.36;98.21;101304.39;105341;1259;75676;-62
2023/09/08 07:01:42;;;;;;;13.50;11.80;;;;;;;16.48;98.21;101302.23;105289;1259;83316;-62
2023/09/08 07:04:10;;;;;;;13.20;11.80;;;;;;;16.58;98.08;101303.18;105380;1257;72996;-62
2023/09/08 07:06:41;;;;;;;13.10;11.40;;;;;;;16.68;97.95;101303.94;105256;1256;69747;-63
2023/09/08 07:09:09;;;;;;;13.50;10.70;;;;;;;16.80;97.90;101300.73;105273;1259;69192;-62
2023/09/08 07:11:36;;;;;;;13.70;10.40;;;;;;;16.92;97.97;101295.21;105347;1256;74439;-62
2023/09/08 07:14:03;;;;;;;11.60;10.10;;;;;;;17.06;98.06;101297.69;105294;1259;83560;-62
2023/09/08 07:16:31;;;;;;;14.90;11.20;;;;;;;17.21;98.05;101298.91;105324;1257;73700;-62
2023/09/08 07:19:00;;;;;;;14.10;10.80;;;;;;;17.37;98.00;101302.30;105252;1258;69202;-62
2023/09/08 07:21:28;;;;;;;15.70;11.40;;;;;;;17.55;98.07;101298.55;105270;1259;69807;-62
2023/09/08 07:23:54;;;;;;;12.70;9.90;;;;;;;17.74;97.73;101294.56;105361;1257;74593;-62
2023/09/08 07:26:22;;;;;;;14.40;10.70;;;;;;;17.92;97.25;101300.56;105288;1259;83252;-62
2023/09/08 07:28:49;;;;;;;13.60;10.30;;;;;;;18.09;96.91;101300.35;105288;1256;73850;-62
2023/09/08 07:31:16;;;;;;;16.80;10.50;;;;;;;18.27;96.24;101297.42;105237;1256;69189;-62
2023/09/08 07:33:44;;;;;;;15.00;9.30;;;;;;;18.43;95.68;101294.93;105331;1256;69057;-62
2023/09/08 07:36:13;;;;;;;12.20;9.30;;;;;;;18.57;95.27;101295.22;105369;1256;75417;-62
2023/09/08 07:38:41;;;;;;;18.20;10.40;;;;;;;18.70;94.79;101295.35;105321;1259;83346;-63
2023/09/08 07:41:08;;;;;;;14.80;9.50;;;;;;;18.83;94.34;101295.52;105296;1256;73942;-62
2023/09/08 07:43:40;;;;;;;13.70;9.70;;;;;;;18.97;93.88;101293.30;105341;1259;69536;-63
2023/09/08 07:46:09;;;;;;;14.10;9.60;;;;;;;19.11;93.36;101294.63;105298;1259;69120;-63
2023/09/08 07:48:36;;;;;;;13.50;9.90;;;;;;;19.25;92.88;101297.19;105303;1257;75539;-63
2023/09/08 07:51:03;;;;;;;10.80;9.10;;;;;;;19.39;92.76;101293.11;105258;1259;83199;-63
2023/09/08 07:53:30;;;;;;;12.60;9.20;;;;;;;19.53;92.41;101293.36;105263;1256;73520;-63
2023/09/08 07:55:57;;;;;;;12.80;9.20;;;;;;;19.66;91.87;101295.98;105350;1259;69196;-62
2023/09/08 07:58:24;;;;;;;10.80;8.90;;;;;;;19.79;91.56;101291.61;105071;1259;280951;-63
2023/09/08 08:00:51;;;;;;;13.10;9.60;;;;;;;19.95;91.27;101296.36;105301;1257;75665;-63
2023/09/08 08:03:18;;;;;;;12.70;9.20;;;;;;;20.08;90.83;101296.92;105255;1259;83656;-63
2023/09/08 08:05:46;;;;;;;12.50;8.90;;;;;;;20.21;90.56;101291.66;105316;1257;74113;-63
2023/09/08 08:08:13;;;;;;;10.30;9.10;;;;;;;20.36;90.00;101292.88;105258;1256;69072;-63
2023/09/08 08:10:41;;;;;;;13.60;8.70;;;;;;;20.46;89.55;101292.01;105279;1257;69302;-63
2023/09/08 08:13:08;;;;;;;13.20;9.50;;;;;;;20.60;89.28;101291.52;105340;1256;74447;-63
2023/09/08 08:15:37;;;;;;;14.30;8.70;;;;;;;20.74;88.95;101292.77;105348;1256;83978;-63
2023/09/08 08:18:05;;;;;;;13.30;9.90;;;;;;;20.90;88.58;101290.30;105368;1257;73937;-63
2023/09/08 08:20:36;;;;;;;13.10;9.40;;;;;;;21.05;88.24;101288.71;105319;1259;69315;-63
2023/09/08 08:23:05;;;;;;;10.40;9.10;;;;;;;21.20;87.39;101285.62;105316;1259;69145;-63
2023/09/08 08:25:32;;;;;;;11.40;8.60;;;;;;;21.31;87.03;101288.05;105339;1259;74302;-63
2023/09/08 08:28:00;;;;;;;12.80;8.60;;;;;;;21.42;86.53;101286.29;105309;1259;83494;-63
2023/09/08 08:30:28;;;;;;;12.60;8.70;;;;;;;21.54;86.25;101281.33;105266;1256;71678;-63
2023/09/08 08:32:55;;;;;;;11.60;9.00;;;;;;;21.67;85.78;101280.10;105374;1256;69217;-62
2023/09/08 08:35:22;;;;;;;10.50;8.50;;;;;;;21.78;85.11;101279.14;105291;1259;70954;-63
2023/09/08 08:37:50;;;;;;;12.50;9.40;;;;;;;21.90;84.59;101280.45;105387;1257;75075;-63
2023/09/08 08:40:17;;;;;;;13.60;9.10;;;;;;;22.08;84.59;101278.82;105292;1259;83443;-63
2023/09/08 08:42:44;;;;;;;13.50;9.00;;;;;;;22.23;83.86;101276.33;105251;1256;73783;-62
2023/09/08 08:45:14;;;;;;;11.10;9.10;;;;;;;22.39;83.17;101270.90;105304;1259;69199;-63
2023/09/08 08:47:41;;;;;;;11.30;8.30;;;;;;;22.53;82.21;101275.08;105244;1257;69196;-63
2023/09/08 08:50:10;;;;;;;10.80;9.00;;;;;;;22.59;81.29;101275.16;105239;1256;74534;-62
2023/09/08 08:52:38;;;;;;;11.90;9.00;;;;;;;22.67;81.07;101269.94;105188;1262;82228;-63
2023/09/08 08:55:05;;;;;;;10.80;9.50;;;;;;;22.85;80.94;101266.77;105300;1257;72804;-62
2023/09/08 08:57:33;;;;;;;11.70;9.30;;;;;;;23.05;80.71;101264.27;105313;1256;69062;-62
2023/09/08 09:00:00;;;;;;;9.80;8.80;;;;;;;23.19;80.06;101264.63;105249;1259;69103;-62
2023/09/08 09:02:28;;;;;;;11.50;9.00;;;;;;;23.31;79.38;101263.35;105276;1256;75880;-62
2023/09/08 09:04:56;;;;;;;10.90;9.00;;;;;;;23.41;78.67;101260.02;105292;1259;83091;-62
2023/09/08 09:07:24;;;;;;;11.00;9.30;;;;;;;23.47;78.23;101259.05;105163;1256;73927;-62
2023/09/08 09:09:51;;;;;;;11.70;9.20;;;;;;;23.60;77.89;101259.98;105182;1256;69199;-63
2023/09/08 09:12:18;;;;;;;11.90;9.10;;;;;;;23.75;77.41;101260.86;105321;1259;69176;-62
2023/09/08 09:14:49;;;;;;;9.90;8.90;;;;;;;23.82;76.69;101256.67;105300;1257;74442;-62
2023/09/08 09:17:16;;;;;;;13.20;8.90;;;;;;;23.89;76.05;101258.84;105294;1257;82678;-62
2023/09/08 09:19:43;;;;;;;11.30;8.60;;;;;;;24.00;75.95;101260.99;105121;1259;72675;-62
2023/09/08 09:22:10;;;;;;;10.20;8.50;;;;;;;24.13;75.76;101260.98;105176;1257;69122;-62
2023/09/08 09:24:43;;;;;;;10.80;8.90;;;;;;;24.27;75.10;101259.84;105120;1259;69200;-63
2023/09/08 09:27:11;;;;;;;11.80;8.70;;;;;;;24.44;74.85;101255.33;105166;1256;75798;-63
2023/09/08 09:29:49;;;;;;;10.20;9.00;;;;;;;24.61;74.40;101253.90;105128;1259;83344;-62
2023/09/08 09:32:23;;;;;;;11.50;8.80;;;;;;;24.71;73.52;101252.52;105178;1255;72662;-62
2023/09/08 09:34:54;;;;;;;10.80;8.60;;;;;;;24.81;73.61;101250.98;105154;1259;69479;-62
2023/09/08 09:37:22;;;;;;;9.70;8.60;;;;;;;25.03;72.98;101247.58;105162;1259;69113;-62
2023/09/08 09:39:51;;;;;;;11.50;8.70;;;;;;;25.18;72.40;101244.86;105143;1259;73857;-63
2023/09/08 09:42:18;;;;;;;11.00;8.60;;;;;;;25.32;71.84;101241.32;105214;1259;83336;-62
2023/09/08 09:44:48;;;;;;;10.90;8.60;;;;;;;25.45;70.98;101241.67;105263;1256;73671;-63
2023/09/08 09:47:16;;;;;;;10.70;9.10;;;;;;;25.58;70.14;101236.44;105262;1256;69209;-62
2023/09/08 09:49:47;;;;;;;13.90;8.30;;;;;;;25.67;69.76;101233.65;105219;1259;69193;-62
2023/09/08 09:52:22;;;;;;;11.60;8.20;;;;;;;25.85;69.45;101230.15;105289;1257;75258;-62
2023/09/08 09:54:53;;;;;;;10.70;8.50;;;;;;;26.08;69.14;101228.03;105271;1256;82470;-63
2023/09/08 09:57:21;;;;;;;10.40;8.90;;;;;;;26.32;68.94;101223.17;105238;1255;72588;-62
2023/09/08 09:59:50;;;;;;;10.60;8.50;;;;;;;26.53;68.26;101224.55;105310;1259;69132;-63
2023/09/08 10:02:21;;;;;;;14.70;8.10;;;;;;;26.64;67.65;101224.98;105275;1256;69071;-63
2023/09/08 10:04:49;;;;;;;9.10;8.10;;;;;;;26.88;66.93;101222.90;105361;1256;75537;-62
2023/09/08 10:07:17;;;;;;;9.80;8.20;;;;;;;27.08;66.13;101217.73;105287;1259;83533;-64
2023/09/08 10:09:46;;;;;;;10.30;8.30;;;;;;;27.24;65.88;101218.88;105314;1259;73601;-64
2023/09/08 10:12:16;;;;;;;10.80;7.80;;;;;;;27.50;65.19;101219.63;105244;1257;69176;-63
2023/09/08 10:14:43;;;;;;;9.20;7.60;;;;;;;27.72;64.56;101214.98;105319;1259;69193;-62
2023/09/08 10:17:18;;;;;;;10.30;7.40;;;;;;;27.97;63.97;101216.23;105296;1259;75004;-62
2023/09/08 10:19:48;;;;;;;16.30;7.70;;;;;;;28.12;62.66;101213.98;105244;1256;82528;-62
2023/09/08 10:22:20;;;;;;;11.00;7.40;;;;;;;28.33;62.55;101217.14;105162;1256;72707;-62
2023/09/08 10:24:49;;;;;;;9.60;7.10;;;;;;;28.61;61.72;101214.15;105271;1257;69112;-62
2023/09/08 10:27:20;;;;;;;10.30;7.50;;;;;;;28.85;60.79;101215.85;105274;1259;69182;-62
2023/09/08 10:29:47;;;;;;;8.20;7.10;;;;;;;29.11;60.03;101208.98;105261;1256;76080;-62
2023/09/08 10:32:14;;;;;;;9.20;6.20;;;;;;;29.43;59.51;101205.14;105284;1257;82433;-62
2023/09/08 10:34:42;;;;;;;7.30;6.50;;;;;;;29.66;58.56;101204.86;105147;1256;73796;-62
2023/09/08 10:37:25;;;;;;;7.90;6.60;;;;;;;29.85;57.55;101200.36;105267;1257;69061;-62
2023/09/08 10:39:52;;;;;;;7.20;6.30;;;;;;;29.99;56.73;101197.21;105232;1259;69080;-63
2023/09/08 10:42:25;;;;;;;12.80;6.30;;;;;;;30.11;56.17;101191.02;105275;1256;74544;-63
2023/09/08 10:44:57;;;;;;;11.80;6.70;;;;;;;30.31;55.70;101188.42;105272;1256;83662;-63
2023/09/08 10:47:25;;;;;;;7.80;6.30;;;;;;;30.53;55.06;101184.69;105302;1259;73638;-63
2023/09/08 10:49:57;;;;;;;6.80;6.10;;;;;;;30.71;54.96;101188.14;105289;1257;69205;-64
2023/09/08 10:52:27;;;;;;;8.50;6.40;;;;;;;30.95;53.81;101184.23;105287;1256;69107;-63
2023/09/08 10:54:55;;;;;;;8.20;6.20;;;;;;;31.11;53.09;101186.27;105261;1259;74586;-63
2023/09/08 10:57:24;;;;;;;7.40;6.20;;;;;;;31.26;52.54;101178.75;105300;1259;83460;-63
2023/09/08 10:59:51;;;;;;;;;;;;;;;31.31;51.32;101179.89;105220;1255;72656;-63
2023/09/08 11:02:45;;;;;;;7.30;6.60;;;;;;;31.35;50.92;101181.73;105284;1256;69291;-63
2023/09/08 11:05:15;;;;;;;8.40;6.30;;;;;;;31.36;50.54;101182.98;105284;1259;69228;-63
2023/09/08 11:07:43;;;;;;;;;;;;;;;31.31;50.75;101183.09;105288;1256;75840;-63
2023/09/08 11:10:11;;;;;;;7.40;5.80;;;;;;;31.54;50.25;101183.64;105261;1259;83370;-63
2023/09/08 11:12:38;;;;;;;6.40;5.60;;;;;;;31.75;49.83;101182.84;105259;1257;74355;-63
2023/09/08 11:15:08;;;;;;;8.50;6.90;;;;;;;31.91;49.30;101183.93;105252;1257;70981;-63